Weather at Us Property & Fiscal Office Heliport

Public forecast

Using degrees Fahrenheit for public forecast. Weather courtesy of forecast.io.

Closest aviation weather report (METAR) to Us Property & Fiscal Office Heliport

Closest report is Norwood Memorial Airport, 10.2 nm (19.0 km) ESE. Retrieved 2020/09/21 17:53 UTC (38 minutes ago):

KOWD 211753Z 05008G16KT 10SM CLR 17/03 A3054 RMK AO2 SLP343 T01720028 10178 20028 58014

Closest aviation forecast (TAF) to Us Property & Fiscal Office Heliport

Closest forecast is Laurence G Hanscom Field, 11.7 nm (21.7 km) NNE. Retrieved 2020/09/21 18:33 UTC (0 seconds ago):

TAF KBED 211730Z 2118/2218 05012KT P6SM SKC FM212200 06006KT P6SM SKC FM220000 VRB03KT P6SM SKC FM221400 36013G23KT P6SM SCT250